Time;durP1;ratioP1;P1;durP2;ratioP2;P2;SDS_P1;SDS_P2;PMS_P1;PMS_P2;Temp;Humidity;BMP_temperature;BMP_pressure;BME280_temperature;BME280_humidity;BME280_pressure;Samples;Min_cycle;Max_cycle;Signal;HPM_P1;HPM_P2
2023/03/02 00:01:47;;;;;;;1.98;1.50;;;;;;;-6.93;67.55;97644.41;4935903;29;20043;-77
2023/03/02 00:04:23;;;;;;;2.33;1.35;;;;;;;-6.97;67.31;97642.81;4950851;29;20071;-76
2023/03/02 00:06:51;;;;;;;4.15;1.60;;;;;;;-7.07;67.87;97641.44;4935090;29;20526;-77
2023/03/02 00:09:17;;;;;;;5.15;1.50;;;;;;;-7.00;67.67;97650.72;4950906;28;20094;-77
2023/03/02 00:11:44;;;;;;;2.17;1.80;;;;;;;-7.01;67.41;97654.22;4935998;29;20051;-76
2023/03/02 00:14:10;;;;;;;3.58;1.50;;;;;;;-7.03;67.66;97661.22;4935877;29;20047;-78
2023/03/02 00:16:36;;;;;;;3.28;1.63;;;;;;;-7.10;67.58;97650.22;4935630;28;20040;-76
2023/03/02 00:19:02;;;;;;;5.68;1.90;;;;;;;-7.03;67.43;97654.28;4934548;29;20410;-77
2023/03/02 00:21:28;;;;;;;5.43;1.70;;;;;;;-7.01;67.24;97651.63;4935796;29;20047;-77
2023/03/02 00:23:53;;;;;;;2.58;1.48;;;;;;;-6.90;67.44;97660.72;4950576;29;20088;-76
2023/03/02 00:26:19;;;;;;;2.05;1.85;;;;;;;-6.92;67.02;97661.66;4935758;29;20075;-78
2023/03/02 00:28:45;;;;;;;3.88;1.70;;;;;;;-6.82;66.96;97662.19;4950244;29;20075;-79
2023/03/02 00:31:11;;;;;;;3.17;1.60;;;;;;;-6.79;66.48;97667.28;4934567;29;20475;-77
2023/03/02 00:33:37;;;;;;;2.53;1.80;;;;;;;-6.80;66.14;97668.19;4934282;29;20130;-78
2023/03/02 00:36:03;;;;;;;5.10;1.60;;;;;;;-6.75;66.57;97664.50;4934623;29;20067;-78
2023/03/02 00:38:28;;;;;;;1.60;1.30;;;;;;;-6.66;66.43;97664.13;4935808;29;20056;-77
2023/03/02 00:40:55;;;;;;;1.42;1.33;;;;;;;-6.70;66.14;97657.34;4935769;29;20051;-77
2023/03/02 00:43:26;;;;;;;3.88;1.63;;;;;;;-6.70;65.98;97667.75;4935629;29;20123;-77
2023/03/02 00:45:53;;;;;;;4.88;1.67;;;;;;;-6.69;65.59;97664.28;4934491;29;20044;-77
2023/03/02 00:48:19;;;;;;;5.72;1.60;;;;;;;-6.67;65.53;97667.66;4950233;28;20043;-77
2023/03/02 00:50:45;;;;;;;7.63;1.95;;;;;;;-6.77;65.30;97676.72;4939220;29;20036;-77
2023/03/02 00:53:11;;;;;;;3.15;1.38;;;;;;;-6.80;65.45;97678.56;4938169;29;20050;-77
2023/03/02 00:55:37;;;;;;;1.95;1.63;;;;;;;-6.88;65.47;97681.47;4937773;29;20055;-77
2023/03/02 00:58:04;;;;;;;2.90;1.73;;;;;;;-6.83;65.69;97678.69;4954160;28;20422;-77
2023/03/02 01:00:31;;;;;;;2.65;1.60;;;;;;;-6.88;65.68;97689.25;4938129;29;20051;-76
2023/03/02 01:03:01;;;;;;;6.13;1.67;;;;;;;-6.96;65.93;97673.06;4938310;29;20438;-77
2023/03/02 01:05:27;;;;;;;2.80;1.70;;;;;;;-6.96;66.27;97675.66;4938128;29;20051;-77
2023/03/02 01:07:53;;;;;;;5.03;1.67;;;;;;;-6.90;66.55;97681.50;4938301;29;20064;-77
2023/03/02 01:10:19;;;;;;;2.05;1.38;;;;;;;-6.90;66.69;97685.84;4937929;29;20119;-78
2023/03/02 01:12:45;;;;;;;2.38;1.70;;;;;;;-6.83;66.46;97682.13;4953754;28;20414;-77
2023/03/02 01:15:11;;;;;;;7.63;1.77;;;;;;;-6.82;66.77;97694.19;4938100;29;20130;-77
2023/03/02 01:17:38;;;;;;;2.08;1.60;;;;;;;-6.74;66.88;97686.97;4937786;29;20059;-77
2023/03/02 01:20:07;;;;;;;3.78;1.90;;;;;;;-6.75;67.07;97685.28;4938358;29;20087;-77
2023/03/02 01:22:33;;;;;;;5.70;1.75;;;;;;;-6.73;66.95;97682.59;4953822;28;20131;-78
2023/03/02 01:24:59;;;;;;;2.65;1.48;;;;;;;-6.76;67.22;97688.78;4938852;29;20051;-78
2023/03/02 01:27:25;;;;;;;1.40;1.30;;;;;;;-6.85;67.74;97694.31;4937557;29;20047;-78
2023/03/02 01:29:51;;;;;;;2.13;1.50;;;;;;;-6.87;67.87;97688.34;4953453;29;20076;-77
2023/03/02 01:32:17;;;;;;;2.63;1.67;;;;;;;-6.79;68.32;97688.91;4953633;29;20043;-77
2023/03/02 01:34:43;;;;;;;2.90;1.88;;;;;;;-6.72;67.99;97692.97;4937274;29;20126;-78
2023/03/02 01:37:09;;;;;;;2.67;1.92;;;;;;;-6.69;67.93;97689.41;4938534;29;20151;-77
2023/03/02 01:39:34;;;;;;;2.92;1.88;;;;;;;-6.76;68.03;97687.94;4937246;29;20550;-76
2023/03/02 01:42:00;;;;;;;4.03;2.00;;;;;;;-6.78;68.18;97682.78;4953081;28;20050;-78
2023/03/02 01:44:46;;;;;;;5.93;2.35;;;;;;;-6.75;68.18;97680.09;4921410;29;20078;-78
2023/03/02 01:47:12;;;;;;;4.38;1.92;;;;;;;-6.66;68.12;97682.31;4953174;28;20079;-77
2023/03/02 01:49:56;;;;;;;3.83;2.03;;;;;;;-6.58;68.00;97681.19;4937258;29;20048;-77
2023/03/02 01:52:25;;;;;;;5.00;2.25;;;;;;;-6.60;67.77;97670.88;4937069;29;20055;-75
2023/03/02 01:54:53;;;;;;;4.50;2.00;;;;;;;-6.60;67.90;97674.31;4952842;29;20039;-79
2023/03/02 01:57:25;;;;;;;2.45;1.90;;;;;;;-6.50;67.73;97669.63;4952595;28;20133;-79
2023/03/02 01:59:58;;;;;;;2.75;1.80;;;;;;;-6.51;67.56;97678.28;4936856;29;20058;-78
2023/03/02 02:02:25;;;;;;;3.17;1.98;;;;;;;-6.52;67.21;97681.81;4936923;29;20055;-78
2023/03/02 02:04:53;;;;;;;4.53;2.00;;;;;;;-6.54;67.37;97685.34;4936709;29;20055;-78
2023/03/02 02:07:20;;;;;;;3.83;2.10;;;;;;;-6.60;67.19;97679.50;4936824;29;20140;-78
2023/03/02 02:09:49;;;;;;;3.67;2.00;;;;;;;-6.62;67.24;97678.72;4953020;29;20499;-78
2023/03/02 02:12:19;;;;;;;3.22;2.17;;;;;;;-6.54;67.14;97687.97;4937410;29;20099;-77
2023/03/02 02:14:46;;;;;;;3.95;2.05;;;;;;;-6.53;67.01;97692.28;4952359;29;20491;-78
2023/03/02 02:17:18;;;;;;;2.15;1.95;;;;;;;-6.54;66.89;97698.34;4936382;29;20039;-78
2023/03/02 02:19:44;;;;;;;7.93;2.45;;;;;;;-6.62;66.95;97706.44;4936943;29;20055;-77
2023/03/02 02:22:10;;;;;;;8.25;2.20;;;;;;;-6.68;67.12;97707.53;4936754;29;20055;-78
2023/03/02 02:24:48;;;;;;;3.88;2.08;;;;;;;-6.52;67.11;97706.97;4952182;29;20046;-77
2023/03/02 02:27:14;;;;;;;3.40;2.10;;;;;;;-6.55;66.93;97720.06;4920521;29;20138;-77
2023/03/02 02:29:45;;;;;;;6.95;2.08;;;;;;;-6.61;66.88;97722.00;4936063;29;20130;-78
2023/03/02 02:32:22;;;;;;;3.63;1.88;;;;;;;-6.68;66.82;97720.53;4936785;29;20040;-77
2023/03/02 02:35:17;;;;;;;6.65;2.53;;;;;;;-6.74;66.95;97706.91;4937326;29;20095;-78
2023/03/02 02:37:48;;;;;;;3.08;1.95;;;;;;;-6.76;67.19;97709.56;4936354;29;20059;-78
2023/03/02 02:40:35;;;;;;;5.15;2.38;;;;;;;-6.82;67.23;97714.13;4935822;29;20040;-78
2023/03/02 02:43:01;;;;;;;3.53;2.00;;;;;;;-6.91;67.26;97707.53;4938746;29;20044;-78
2023/03/02 02:45:28;;;;;;;2.72;1.98;;;;;;;-6.90;67.20;97711.81;4951971;29;20062;-78
2023/03/02 02:47:56;;;;;;;2.75;2.10;;;;;;;-6.93;67.38;97722.31;4951912;29;20048;-80
2023/03/02 02:50:26;;;;;;;6.63;3.80;;;;;;;-6.94;67.19;97729.25;4937158;29;20073;-79
2023/03/02 02:53:02;;;;;;;5.53;2.30;;;;;;;-6.89;67.12;97734.28;4919892;29;20036;-80
2023/03/02 02:55:29;;;;;;;4.00;2.45;;;;;;;-6.89;67.19;97726.50;4936079;29;20058;-80
2023/03/02 02:57:58;;;;;;;2.92;2.03;;;;;;;-6.91;67.35;97731.75;4937445;29;20110;-81
2023/03/02 03:00:25;;;;;;;3.63;2.20;;;;;;;-6.88;67.38;97726.47;4935959;29;20059;-80
2023/03/02 03:03:28;;;;;;;69.78;9.15;;;;;;;-6.81;67.28;97726.22;4936690;29;20047;-77
2023/03/02 03:06:00;;;;;;;3.65;2.25;;;;;;;-6.74;67.10;97727.69;4935502;29;20067;-80
2023/03/02 03:08:45;;;;;;;5.70;2.22;;;;;;;-6.62;67.11;97722.91;4919730;29;20521;-79
2023/03/02 03:11:23;;;;;;;2.80;2.13;;;;;;;-6.55;66.52;97723.50;4934586;29;20043;-78
2023/03/02 03:13:56;;;;;;;6.10;2.47;;;;;;;-6.45;66.62;97737.84;4935524;29;20491;-79
2023/03/02 03:16:25;;;;;;;3.35;2.28;;;;;;;-6.34;66.57;97732.25;4935984;29;20058;-78
2023/03/02 03:18:52;;;;;;;3.80;2.67;;;;;;;-6.45;66.40;97737.84;4951463;29;20110;-79
2023/03/02 03:21:18;;;;;;;2.80;1.85;;;;;;;-6.50;66.77;97733.75;4935496;29;20138;-78
2023/03/02 03:23:44;;;;;;;6.50;2.40;;;;;;;-6.53;67.14;97731.25;4951344;29;20052;-80
2023/03/02 03:26:11;;;;;;;5.47;2.38;;;;;;;-6.52;67.53;97722.56;4935327;29;20055;-79
2023/03/02 03:28:37;;;;;;;5.13;2.42;;;;;;;-6.37;67.35;97732.38;4936344;29;20506;-78
2023/03/02 03:31:03;;;;;;;7.50;2.78;;;;;;;-6.43;67.22;97727.38;4935091;29;20083;-78
2023/03/02 03:33:29;;;;;;;2.47;2.10;;;;;;;-6.26;67.27;97739.75;4951368;29;20525;-78
2023/03/02 03:35:55;;;;;;;5.28;2.08;;;;;;;-6.18;67.15;97743.75;4935143;29;20495;-78
2023/03/02 03:38:21;;;;;;;3.42;2.60;;;;;;;-5.97;67.18;97746.44;4935224;29;20154;-77
2023/03/02 03:40:48;;;;;;;4.60;2.45;;;;;;;-5.74;66.74;97750.69;4919078;29;20127;-80
2023/03/02 03:43:14;;;;;;;3.25;2.55;;;;;;;-5.54;66.56;97760.31;4919398;29;20143;-79
2023/03/02 03:45:46;;;;;;;6.93;2.50;;;;;;;-5.48;65.97;97767.88;4935452;29;20078;-79
2023/03/02 03:48:12;;;;;;;3.58;2.40;;;;;;;-5.43;65.81;97768.53;4935104;29;20503;-78
2023/03/02 03:50:38;;;;;;;3.67;2.20;;;;;;;-5.40;65.29;97757.97;4918975;29;20134;-77
2023/03/02 03:53:03;;;;;;;3.40;2.33;;;;;;;-5.44;64.88;97766.84;4950607;29;20047;-78
2023/03/02 03:55:30;;;;;;;4.20;2.50;;;;;;;-5.41;65.38;97764.13;4950249;29;20063;-76
2023/03/02 03:57:57;;;;;;;6.78;2.47;;;;;;;-5.45;64.85;97759.94;4950644;29;20047;-77
2023/03/02 04:00:23;;;;;;;6.80;3.00;;;;;;;-5.34;65.01;97768.16;4934662;29;20047;-77
2023/03/02 04:02:55;;;;;;;3.58;2.13;;;;;;;-5.26;65.46;97775.66;4935883;29;20047;-80
2023/03/02 04:05:22;;;;;;;4.15;2.50;;;;;;;-5.16;64.97;97775.19;4950592;29;20074;-78
2023/03/02 04:07:51;;;;;;;4.88;2.80;;;;;;;-5.08;64.80;97764.44;4934480;29;20066;-78
2023/03/02 04:10:18;;;;;;;2.58;2.17;;;;;;;-4.84;64.91;97770.38;4934809;29;20047;-79
2023/03/02 04:12:45;;;;;;;2.88;2.08;;;;;;;-4.85;64.27;97766.09;4934503;29;20110;-78
2023/03/02 04:15:15;;;;;;;3.20;2.10;;;;;;;-4.83;64.25;97768.59;4934496;29;20079;-78
2023/03/02 04:17:43;;;;;;;1.58;1.48;;;;;;;-5.06;64.13;97767.00;4918904;29;20070;-81
2023/03/02 04:20:16;;;;;;;2.80;2.20;;;;;;;-4.99;64.59;97773.63;4934616;29;20054;-77
2023/03/02 04:22:46;;;;;;;3.33;2.25;;;;;;;-4.82;64.72;97775.50;4934148;29;20051;-80
2023/03/02 04:25:18;;;;;;;4.82;2.55;;;;;;;-4.93;64.22;97773.34;4918322;29;20075;-76
2023/03/02 04:27:49;;;;;;;5.72;2.45;;;;;;;-4.84;64.08;97783.41;4934357;28;20047;-81
2023/03/02 04:30:19;;;;;;;4.65;2.13;;;;;;;-4.78;64.05;97779.66;4934435;29;20527;-79
2023/03/02 04:32:45;;;;;;;3.97;2.30;;;;;;;-4.86;64.22;97771.34;4934378;29;20044;-77
2023/03/02 04:35:13;;;;;;;4.88;2.10;;;;;;;-4.89;64.32;97778.41;4934319;29;20127;-76
2023/03/02 04:37:40;;;;;;;4.80;2.00;;;;;;;-4.91;64.27;97797.59;4934177;28;20051;-75
2023/03/02 04:40:08;;;;;;;3.40;2.13;;;;;;;-4.75;64.63;97788.22;4934531;28;20051;-77
2023/03/02 04:42:34;;;;;;;2.38;2.17;;;;;;;-4.30;64.66;97784.47;4933371;29;20114;-78
2023/03/02 04:45:00;;;;;;;3.83;2.30;;;;;;;-4.17;63.07;97782.19;4934556;29;20530;-77
2023/03/02 04:47:28;;;;;;;4.63;2.40;;;;;;;-4.10;63.50;97787.94;4918327;29;20120;-79
2023/03/02 04:49:55;;;;;;;12.93;2.70;;;;;;;-4.04;62.92;97790.28;4931203;29;20047;-77
2023/03/02 04:52:21;;;;;;;5.90;2.47;;;;;;;-4.07;62.48;97782.59;4899353;29;20048;-76
2023/03/02 04:54:47;;;;;;;3.55;2.33;;;;;;;-3.91;62.11;97794.03;4899308;29;20129;-74
2023/03/02 04:57:13;;;;;;;3.72;2.08;;;;;;;-4.00;61.68;97789.22;4930874;29;20067;-76
2023/03/02 04:59:39;;;;;;;4.55;1.80;;;;;;;-4.08;62.17;97793.94;4883583;29;20047;-76
2023/03/02 05:02:05;;;;;;;5.05;2.20;;;;;;;-4.30;62.37;97799.28;4914875;29;20052;-74
2023/03/02 05:04:32;;;;;;;4.20;2.45;;;;;;;-4.26;62.69;97796.47;4930630;29;20053;-76
2023/03/02 05:06:57;;;;;;;4.38;2.70;;;;;;;-4.09;62.74;97798.31;4899298;29;20051;-74
2023/03/02 05:09:29;;;;;;;5.10;2.63;;;;;;;-4.10;62.24;97790.53;4914818;29;20051;-74
2023/03/02 05:11:57;;;;;;;4.75;3.00;;;;;;;-4.08;62.71;97807.00;4899944;29;20044;-76
2023/03/02 05:14:24;;;;;;;3.80;2.55;;;;;;;-3.78;61.93;97808.19;4914764;29;20496;-75
2023/03/02 05:16:50;;;;;;;4.10;2.70;;;;;;;-3.66;61.57;97804.16;4914441;29;20071;-75
2023/03/02 05:19:17;;;;;;;4.97;2.85;;;;;;;-3.57;61.56;97800.25;4935285;29;20486;-78
2023/03/02 05:21:44;;;;;;;5.40;2.83;;;;;;;-3.38;61.33;97803.69;4918133;29;20065;-81
2023/03/02 05:24:12;;;;;;;4.45;3.63;;;;;;;-3.28;61.13;97806.69;4935184;28;20103;-77
2023/03/02 05:26:38;;;;;;;5.82;3.10;;;;;;;-3.21;60.92;97819.38;4935068;29;20525;-79
2023/03/02 05:29:05;;;;;;;4.38;2.83;;;;;;;-3.07;60.04;97804.78;4949566;28;20090;-78
2023/03/02 05:31:39;;;;;;;6.13;2.90;;;;;;;-3.29;59.88;97813.69;4933917;29;20052;-77
2023/03/02 05:34:08;;;;;;;6.00;2.92;;;;;;;-3.47;60.38;97819.78;4933972;29;20083;-77
2023/03/02 05:36:34;;;;;;;5.10;3.30;;;;;;;-3.67;61.22;97810.28;4936969;29;20414;-78
2023/03/02 05:39:00;;;;;;;5.65;3.40;;;;;;;-3.68;61.57;97822.50;4938211;29;20055;-77
2023/03/02 05:41:27;;;;;;;3.88;3.38;;;;;;;-3.42;61.29;97816.03;4936916;28;20048;-78
2023/03/02 05:43:52;;;;;;;8.95;3.83;;;;;;;-3.13;60.74;97821.59;4938431;29;20048;-81
2023/03/02 05:46:18;;;;;;;5.47;4.10;;;;;;;-2.96;60.70;97816.41;4953519;29;20048;-78
2023/03/02 05:48:47;;;;;;;5.45;4.10;;;;;;;-3.09;60.58;97819.69;4952969;29;20106;-77
2023/03/02 05:51:13;;;;;;;5.50;3.33;;;;;;;-3.13;59.49;97820.75;4921031;29;20134;-77
2023/03/02 05:53:38;;;;;;;10.02;3.70;;;;;;;-3.01;59.66;97825.38;4936876;29;20440;-83
2023/03/02 05:56:05;;;;;;;12.18;4.75;;;;;;;-2.89;59.44;97835.25;4952477;29;20067;-78
2023/03/02 05:58:31;;;;;;;7.47;4.28;;;;;;;-2.84;59.20;97821.94;4937021;29;20102;-79
2023/03/02 06:00:57;;;;;;;9.52;4.68;;;;;;;-2.72;59.37;97831.78;4936993;29;20110;-78
2023/03/02 06:03:23;;;;;;;6.80;4.57;;;;;;;-2.68;58.97;97828.06;4953150;29;20047;-78
2023/03/02 08:37:50;;;;;;;7.13;2.85;;;;;;;1.46;45.34;97857.06;5847812;23;20267;-78
2023/03/02 08:40:16;;;;;;;8.23;3.55;;;;;;;1.35;46.26;97862.22;4956578;28;20043;-79
2023/03/02 08:42:42;;;;;;;7.00;3.20;;;;;;;1.40;46.45;97871.50;4956501;28;20572;-78
2023/03/02 08:45:08;;;;;;;5.25;2.80;;;;;;;1.11;46.24;97865.50;4974152;28;20051;-77
2023/03/02 08:47:34;;;;;;;11.18;2.67;;;;;;;0.77;47.03;97874.75;4988672;28;20493;-78
2023/03/02 08:50:00;;;;;;;4.35;2.60;;;;;;;0.49;47.97;97854.63;4973807;28;20054;-78
2023/03/02 08:52:25;;;;;;;8.52;2.92;;;;;;;-0.07;48.18;97857.19;4971727;28;20050;-79
2023/03/02 08:54:51;;;;;;;8.63;2.70;;;;;;;-0.08;48.81;97870.38;4973799;28;20043;-78
2023/03/02 08:57:17;;;;;;;4.50;2.92;;;;;;;-0.37;49.51;97862.50;4956153;28;20035;-77
2023/03/02 08:59:43;;;;;;;7.65;3.00;;;;;;;-0.25;49.49;97859.13;4973105;28;20043;-77
2023/03/02 09:02:11;;;;;;;7.00;2.40;;;;;;;-0.33;48.76;97857.91;4973845;28;20141;-77
2023/03/02 09:04:38;;;;;;;129.03;15.57;;;;;;;-0.38;49.39;97868.66;4972542;28;20146;-79
2023/03/02 09:07:03;;;;;;;10.23;2.30;;;;;;;-0.34;50.21;97851.81;4972714;28;20481;-80
2023/03/02 09:09:29;;;;;;;4.03;2.03;;;;;;;-0.61;49.28;97848.19;4972433;28;20042;-77
2023/03/02 09:11:55;;;;;;;4.97;2.50;;;;;;;-0.97;50.14;97859.88;4966494;28;20445;-76
2023/03/02 09:14:21;;;;;;;7.38;2.60;;;;;;;-0.86;50.37;97860.13;4984536;28;20493;-76
2023/03/02 09:16:47;;;;;;;6.10;2.65;;;;;;;-0.72;49.97;97859.31;4959390;28;20042;-76
2023/03/02 09:19:14;;;;;;;3.55;2.25;;;;;;;-0.75;49.95;97867.38;4976181;28;20046;-78
2023/03/02 09:21:42;;;;;;;4.20;2.42;;;;;;;-0.78;49.82;97865.75;4958209;28;20046;-77
2023/03/02 09:24:08;;;;;;;4.00;2.47;;;;;;;-0.86;50.45;97873.22;4976348;28;20047;-75
2023/03/02 09:26:35;;;;;;;5.97;2.45;;;;;;;-1.04;49.95;97879.53;4975527;28;20057;-77
2023/03/02 09:29:00;;;;;;;4.95;2.60;;;;;;;-1.13;50.45;97880.03;4969835;28;20045;-76
2023/03/02 09:31:26;;;;;;;5.00;2.40;;;;;;;-1.22;50.90;97882.22;4956770;28;20039;-79
2023/03/02 09:33:55;;;;;;;4.80;2.20;;;;;;;-1.20;50.79;97900.53;4963844;28;20590;-78
2023/03/02 09:36:23;;;;;;;3.42;2.25;;;;;;;-1.03;50.93;97902.19;4964503;28;20569;-78
2023/03/02 09:38:49;;;;;;;3.33;2.63;;;;;;;-1.20;50.65;97894.41;4965172;28;20063;-77
2023/03/02 09:41:18;;;;;;;3.63;2.30;;;;;;;-1.26;51.09;97885.97;4973448;28;20043;-77
2023/03/02 09:44:05;;;;;;;3.50;1.98;;;;;;;-1.16;51.04;97890.72;4975718;28;20085;-75
2023/03/02 09:46:46;;;;;;;3.17;2.17;;;;;;;-1.07;51.17;97877.06;4959885;28;20051;-76
2023/03/02 09:49:30;;;;;;;5.78;2.55;;;;;;;-1.04;51.04;97884.75;4975594;28;20054;-75
2023/03/02 09:51:58;;;;;;;5.45;2.58;;;;;;;-0.67;50.67;97880.06;4944438;28;20042;-75
2023/03/02 09:54:24;;;;;;;7.47;2.40;;;;;;;-0.89;50.58;97865.53;4972082;28;20049;-75
2023/03/02 09:56:56;;;;;;;7.53;2.20;;;;;;;-0.80;50.65;97867.63;4957344;28;20043;-75
2023/03/02 09:59:37;;;;;;;6.28;2.70;;;;;;;-1.08;50.90;97867.53;4939975;29;20135;-76
2023/03/02 10:02:43;;;;;;;3.10;2.00;;;;;;;-0.73;50.81;97879.44;4939935;29;20039;-77
2023/03/02 10:05:26;;;;;;;3.53;2.38;;;;;;;-0.63;50.10;97866.66;4953401;29;20051;-75
2023/03/02 10:07:51;;;;;;;2.72;1.80;;;;;;;-0.40;50.31;97867.91;4970784;28;20039;-76
2023/03/02 10:10:17;;;;;;;3.83;1.92;;;;;;;-0.32;48.88;97875.34;4983699;28;20464;-76
2023/03/02 10:13:14;;;;;;;3.50;1.75;;;;;;;-0.38;48.94;97884.41;4969535;28;20078;-76
2023/03/02 10:15:49;;;;;;;3.80;2.22;;;;;;;-0.61;49.16;97866.56;4968951;28;20050;-77
2023/03/02 10:18:31;;;;;;;8.57;2.67;;;;;;;-0.50;48.97;97875.47;4950108;28;20035;-76
2023/03/02 10:21:23;;;;;;;3.67;1.80;;;;;;;-0.39;48.48;97877.47;4953369;28;20063;-74
2023/03/02 10:24:00;;;;;;;3.13;1.80;;;;;;;-0.08;48.82;97873.03;4944406;29;20043;-75
2023/03/02 10:26:47;;;;;;;4.72;2.28;;;;;;;0.30;47.41;97882.97;4971382;28;20031;-77
2023/03/02 10:29:40;;;;;;;6.75;2.33;;;;;;;0.38;46.77;97883.38;4949233;28;20074;-76
2023/03/02 10:32:22;;;;;;;3.67;1.70;;;;;;;0.09;47.02;97893.03;4971437;28;20044;-76
2023/03/02 10:34:50;;;;;;;3.80;2.10;;;;;;;0.07;47.40;97882.59;4964423;28;20046;-76
2023/03/02 10:37:23;;;;;;;4.57;2.15;;;;;;;0.24;47.44;97898.19;4960679;28;20042;-77
2023/03/02 10:39:53;;;;;;;4.68;1.88;;;;;;;0.61;45.98;97906.44;4965727;28;20082;-78
2023/03/02 10:42:53;;;;;;;4.57;2.13;;;;;;;1.51;45.80;97898.91;4950464;28;20051;-78
2023/03/02 10:45:18;;;;;;;;;;;;;;;1.78;44.65;97904.13;4920006;28;20106;-78
2023/03/02 10:48:08;;;;;;;10.93;2.28;;;;;;;1.57;44.53;97894.06;4948818;28;19918;-77
2023/03/02 10:50:34;;;;;;;5.45;2.10;;;;;;;0.66;45.18;97900.88;4940164;28;20043;-77
2023/03/02 10:53:01;;;;;;;3.92;2.05;;;;;;;0.42;46.39;97892.75;4978664;28;20055;-78
2023/03/02 10:55:28;;;;;;;4.75;2.17;;;;;;;0.50;46.56;97900.16;4972709;28;20121;-78
2023/03/02 10:58:06;;;;;;;5.80;2.22;;;;;;;0.93;45.48;97895.66;4958594;28;20045;-76
2023/03/02 11:00:35;;;;;;;4.10;2.63;;;;;;;1.26;45.46;97904.94;4974196;28;20101;-77
2023/03/02 11:03:19;;;;;;;3.95;2.40;;;;;;;1.79;44.58;97901.38;4968413;28;20070;-78
2023/03/02 11:05:44;;;;;;;2.78;2.10;;;;;;;2.15;43.00;97892.75;4938964;28;20046;-77
2023/03/02 11:08:17;;;;;;;3.25;1.80;;;;;;;2.63;41.86;97903.47;4959074;28;20042;-76
2023/03/02 11:10:59;;;;;;;4.15;2.50;;;;;;;3.22;42.18;97909.84;4937129;28;20043;-76
2023/03/02 11:13:29;;;;;;;7.88;2.30;;;;;;;3.39;41.45;97885.69;4940259;28;20042;-76
2023/03/02 11:16:00;;;;;;;2.58;1.83;;;;;;;3.64;39.99;97909.28;4972373;28;20039;-77
2023/03/02 11:18:39;;;;;;;4.75;1.92;;;;;;;2.99;40.81;97904.44;4964322;28;20127;-77
2023/03/02 11:21:26;;;;;;;3.17;1.75;;;;;;;2.33;41.26;97905.59;4963548;28;20185;-78
2023/03/02 11:24:33;;;;;;;4.03;2.20;;;;;;;1.94;42.53;97902.13;4965103;28;20050;-77
2023/03/02 11:27:05;;;;;;;4.55;1.98;;;;;;;1.19;43.48;97897.44;4969531;28;20093;-77
2023/03/02 11:29:43;;;;;;;4.53;2.08;;;;;;;0.84;44.67;97906.75;4937247;28;20101;-76
2023/03/02 11:32:23;;;;;;;4.28;1.88;;;;;;;1.73;44.24;97904.44;4962639;28;20494;-78
2023/03/02 11:34:52;;;;;;;3.78;2.40;;;;;;;2.36;42.51;97884.31;4965401;28;20391;-77
2023/03/02 11:37:22;;;;;;;5.20;2.35;;;;;;;2.76;41.99;97886.78;4964699;28;20047;-77
2023/03/02 11:39:48;;;;;;;2.95;1.80;;;;;;;3.17;41.44;97876.69;4965466;28;20094;-77
2023/03/02 11:42:25;;;;;;;2.25;1.90;;;;;;;3.55;41.12;97893.31;4970012;28;20490;-76
2023/03/02 11:44:51;;;;;;;3.45;2.35;;;;;;;3.80;40.66;97890.50;4970282;28;20519;-77
2023/03/02 11:47:19;;;;;;;4.13;2.15;;;;;;;3.65;40.89;97892.50;4965197;28;20047;-77
2023/03/02 11:49:59;;;;;;;6.30;2.17;;;;;;;3.72;40.33;97898.16;4969307;28;20046;-76
2023/03/02 11:52:29;;;;;;;4.47;2.15;;;;;;;4.17;39.70;97897.41;4977867;28;20520;-77
2023/03/02 11:55:04;;;;;;;2.40;1.90;;;;;;;4.33;38.93;97900.59;4992788;28;20054;-77
2023/03/02 11:57:38;;;;;;;4.43;2.10;;;;;;;4.39;39.31;97897.44;4990487;28;20054;-78
2023/03/02 12:00:14;;;;;;;5.03;2.22;;;;;;;4.82;38.68;97899.38;4952223;28;20051;-77
2023/03/02 12:02:40;;;;;;;3.78;2.00;;;;;;;5.16;37.61;97912.56;4973380;28;20043;-76
2023/03/02 12:05:23;;;;;;;4.75;2.25;;;;;;;5.57;36.82;97902.06;4957807;28;20038;-75
2023/03/02 12:08:00;;;;;;;2.85;2.05;;;;;;;6.00;36.35;97909.09;4957528;28;20518;-77
2023/03/02 12:10:34;;;;;;;2.53;2.05;;;;;;;6.04;35.81;97894.63;4957409;28;20133;-76
2023/03/02 12:13:14;;;;;;;2.72;1.85;;;;;;;5.82;36.00;97906.16;4974337;28;20395;-76
2023/03/02 12:15:46;;;;;;;2.78;1.83;;;;;;;5.86;35.91;97906.72;4974508;28;20078;-77
2023/03/02 12:18:24;;;;;;;3.17;2.00;;;;;;;5.71;35.67;97897.41;4973215;28;20047;-77
2023/03/02 12:21:01;;;;;;;5.43;2.40;;;;;;;5.35;36.45;97902.16;4956721;28;20141;-78
2023/03/02 12:23:28;;;;;;;4.80;2.38;;;;;;;5.05;36.38;97901.00;4973203;28;20047;-77
2023/03/02 12:26:20;;;;;;;6.50;2.13;;;;;;;4.08;36.85;97902.47;4978734;28;20511;-77
2023/03/02 12:29:10;;;;;;;3.60;2.13;;;;;;;3.63;38.46;97901.50;4957340;28;20050;-78
2023/03/02 12:31:47;;;;;;;7.22;2.10;;;;;;;3.37;38.93;97906.91;4956755;28;20189;-76
2023/03/02 12:34:37;;;;;;;3.47;2.33;;;;;;;2.82;39.40;97894.22;4956594;28;20158;-76
2023/03/02 12:37:12;;;;;;;4.63;2.20;;;;;;;2.17;40.03;97898.75;4966960;28;20053;-76
2023/03/02 12:39:56;;;;;;;5.07;2.53;;;;;;;1.81;41.24;97903.94;4973390;28;20142;-78
2023/03/02 12:42:39;;;;;;;5.68;2.60;;;;;;;2.04;41.03;97908.47;4956625;28;20051;-76
2023/03/02 12:45:19;;;;;;;4.38;1.92;;;;;;;1.76;41.27;97900.72;4959761;28;20113;-77
2023/03/02 12:47:50;;;;;;;5.95;1.85;;;;;;;1.13;42.12;97905.75;4976902;28;20047;-78
2023/03/02 12:50:29;;;;;;;6.35;2.40;;;;;;;0.82;42.96;97906.00;4944655;28;20556;-82
2023/03/02 12:53:04;;;;;;;4.68;2.35;;;;;;;0.46;43.32;97891.63;4960832;28;20097;-79
2023/03/02 12:55:31;;;;;;;2.22;2.03;;;;;;;0.55;44.06;97901.53;4977055;28;20042;-78
2023/03/02 12:58:02;;;;;;;3.13;2.13;;;;;;;0.63;44.75;97901.91;4993617;28;20105;-79
2023/03/02 13:00:33;;;;;;;9.68;2.40;;;;;;;1.00;47.71;97904.00;4976847;28;20042;-76
2023/03/02 13:03:01;;;;;;;3.65;2.28;;;;;;;1.28;44.04;97900.41;4960572;28;20042;-76
2023/03/02 13:05:32;;;;;;;4.38;2.10;;;;;;;1.06;43.95;97908.88;4960093;28;20070;-78
2023/03/02 13:08:12;;;;;;;3.35;2.47;;;;;;;1.33;44.00;97908.88;4944123;28;20049;-79
2023/03/02 13:10:46;;;;;;;6.25;2.00;;;;;;;1.24;43.27;97912.91;4944621;28;20042;-78
2023/03/02 13:13:17;;;;;;;3.65;2.42;;;;;;;1.41;43.49;97903.94;4977688;28;20512;-76
2023/03/02 13:15:50;;;;;;;6.13;2.30;;;;;;;1.30;43.19;97909.06;4959214;28;20129;-76
2023/03/02 13:18:16;;;;;;;5.70;2.20;;;;;;;0.41;43.77;97898.91;4943823;28;20112;-77
2023/03/02 13:20:43;;;;;;;3.72;2.20;;;;;;;-0.31;45.24;97896.25;4977199;28;20047;-77
2023/03/02 13:23:13;;;;;;;5.68;2.53;;;;;;;-0.98;46.76;97894.88;4991965;28;20049;-77
2023/03/02 13:25:57;;;;;;;5.72;2.10;;;;;;;-1.51;48.32;97888.22;4975629;28;20046;-77
2023/03/02 13:28:34;;;;;;;6.88;2.00;;;;;;;-1.85;48.99;97897.06;4959564;28;20652;-80
2023/03/02 13:31:13;;;;;;;3.17;2.08;;;;;;;-2.36;50.34;97897.09;4976205;28;20402;-76
2023/03/02 13:33:43;;;;;;;6.65;2.03;;;;;;;-2.84;52.01;97895.16;4943162;28;20073;-75
2023/03/02 13:36:34;;;;;;;3.05;2.00;;;;;;;-3.08;52.84;97902.44;4971998;28;20043;-77
2023/03/02 13:39:05;;;;;;;4.68;1.92;;;;;;;-3.38;54.01;97902.97;4956820;28;20081;-77
2023/03/02 13:41:34;;;;;;;2.53;2.20;;;;;;;-3.61;54.31;97893.59;4973935;28;20089;-77
2023/03/02 13:44:18;;;;;;;3.30;2.17;;;;;;;-3.87;55.96;97902.59;4974713;28;20050;-76
2023/03/02 13:46:45;;;;;;;6.47;2.35;;;;;;;-4.03;55.98;97902.41;4941649;28;20563;-75
2023/03/02 13:49:11;;;;;;;4.00;2.03;;;;;;;-4.10;56.44;97901.00;4957429;28;20045;-76
2023/03/02 13:51:45;;;;;;;4.13;2.22;;;;;;;-4.26;56.74;97900.81;4941435;28;20042;-75
2023/03/02 13:54:33;;;;;;;3.35;2.15;;;;;;;-4.57;57.40;97905.66;4940847;29;20039;-77
2023/03/02 13:57:01;;;;;;;4.22;2.22;;;;;;;-4.75;58.09;97894.25;4993585;28;20043;-76
2023/03/02 13:59:28;;;;;;;6.15;1.90;;;;;;;-4.85;58.15;97900.72;4978745;28;20038;-77
2023/03/02 14:01:55;;;;;;;2.05;1.90;;;;;;;-4.94;58.39;97901.97;4969813;28;20050;-75
2023/03/02 14:04:22;;;;;;;5.72;2.20;;;;;;;-5.10;59.13;97908.72;4954175;28;20043;-78
2023/03/02 14:06:53;;;;;;;3.88;1.75;;;;;;;-5.24;60.30;97906.66;4963462;28;20039;-75
2023/03/02 14:09:19;;;;;;;21.63;12.35;;;;;;;-5.34;60.47;97906.19;4963575;28;20097;-76
2023/03/02 14:11:54;;;;;;;4.07;2.28;;;;;;;-5.48;61.03;97911.06;4954803;28;20081;-76
2023/03/02 14:14:22;;;;;;;4.60;2.10;;;;;;;-5.45;60.54;97911.81;4968579;28;20062;-75
2023/03/02 14:16:49;;;;;;;;;;;;;;;-5.47;60.71;97907.56;4938463;29;20087;-76
2023/03/02 14:19:17;;;;;;;3.72;2.00;;;;;;;-5.56;61.32;97908.75;4953449;28;19922;-77
2023/03/02 14:21:47;;;;;;;4.65;2.17;;;;;;;-5.63;61.85;97913.34;4953638;28;20500;-75
2023/03/02 14:24:13;;;;;;;3.78;1.75;;;;;;;-5.68;62.63;97925.69;4920708;29;20106;-75
2023/03/02 14:26:45;;;;;;;3.53;1.90;;;;;;;-5.72;62.55;97923.25;4921306;28;20055;-76